Arapahoe, NC

2:12 AM EST on March 06, 2015 (GMT -0500)
Arapahoe, NC | Change Station
CLOSE
Current Station
Personal Weather Station
Location: South Arapahoe, NC
Elevation: 75 ft
Nearby Weather Stations
Active Advisory: Winter Weather Advisory

Elev 75 ft 35.01 °N, 76.82 °W | Updated 2 minutes ago

Overcast
Overcast
33.2 °F
Feels Like 26 °F
N
8.0
Wind Variable Wind from North
Gusts 19.0 mph

Today
High -- | Low -- °F
--% Chance of Precip.
Yesterday
High -- | Low -- °F
Precip. -- in
6:30 AM 6:07 PM
Full, 100% visible
Pressure 30.30 in
Visibility 9.0 miles
Clouds Overcast 700 ft
Windchill 26 °F
Dew Point 32 °F
Humidity 94%
Rainfall in
Snow Depth Not available.
UV 0.0 out of 12
Pollen 3.50 out of 12
Air Quality Not available.
Flu Activity Not available.
METAR KNKT 060654Z 01014G20KT 9SM OVC007 01/00 A3031 RMK AO2 RAE54 SLP261 P0000 T00110000 $

More Conditions Fewer Conditions

Pressure 30.30 in
Visibility 9.0 miles
Clouds Overcast 700 ft
Windchill 26 °F
Dew Point 32 °F
Humidity 94%
Rainfall in
Snow Depth Not available.
UV 0.0 out of 12
Pollen 3.50 out of 12
Air Quality Not available.
Flu Activity Not available.
METAR KNKT 060654Z 01014G20KT 9SM OVC007 01/00 A3031 RMK AO2 RAE54 SLP261 P0000 T00110000 $

More Conditions Fewer Conditions

10-Day Weather Forecast

Almanac

Astronomy

Mar. 06, 2015 Rise Set
Actual Time
Civil Twilight
Nautical Twilight
Astronomical Twilight
Moon
Length of Visible Light
Length of Day
Tomorrow will be .
, % of the Moon is Illuminated

Today's Extremes

State Highs State Lows

Community

WunderPhotos

Upload Photos

1,803,199 photos uploaded!

WunderBlogs® & News

Nearby

Air Quality

  Air Quality AQ Index Pollutant
Not available.

Snow Depth

Station Depth Elevation

Earthquake Activity

City Distance Mag. Time & Date
Minimum magnitude displayed is 2.5.

Coastal Water Temperatures

Place Temperature

Nearby Weather Stations

Winter Weather Advisory
Statement as of 12:59 AM EST on March 06, 2015

... Winter Weather Advisory remains in effect until 4 am EST early
this morning...

* timing... through early Friday morning.

* Main impact... some slick spots may develop on mainly elevated
surfaces such as bridges and overpasses... though no major
impacts on roadways are expected as ground temperatures remain
very warm.

* Location... generally along and northeast of Highway 70.

Precautionary/preparedness actions...

A Winter Weather Advisory means that periods of sleet and
freezing rain will cause travel difficulties. Be prepared for
slippery roads and limited visibilities... and use caution while
driving. Never use a generator indoors. Gas grills...
generators... and Camp stoves create deadly Carbon monoxide fumes
that will build up when used in your home.